sensor_id;sensor_type;location;lat;lon;timestamp;temperature;humidity
780;DHT22;373;49.342;8.146;2022-12-10T00:01:42;3.90;99.90
780;DHT22;373;49.342;8.146;2022-12-10T00:04:09;3.90;99.90
780;DHT22;373;49.342;8.146;2022-12-10T00:06:37;3.80;99.90
780;DHT22;373;49.342;8.146;2022-12-10T00:09:07;3.90;99.90
780;DHT22;373;49.342;8.146;2022-12-10T00:11:37;3.90;99.90
780;DHT22;373;49.342;8.146;2022-12-10T00:14:04;3.80;99.90
780;DHT22;373;49.342;8.146;2022-12-10T00:16:33;3.70;99.90
780;DHT22;373;49.342;8.146;2022-12-10T00:19:00;3.70;99.90
780;DHT22;373;49.342;8.146;2022-12-10T00:21:29;3.70;99.90
780;DHT22;373;49.342;8.146;2022-12-10T00:23:57;3.70;99.90
780;DHT22;373;49.342;8.146;2022-12-10T00:26:27;3.90;99.90
780;DHT22;373;49.342;8.146;2022-12-10T00:28:57;3.70;99.90
780;DHT22;373;49.342;8.146;2022-12-10T00:31:26;3.70;99.90
780;DHT22;373;49.342;8.146;2022-12-10T00:33:58;3.70;99.90
780;DHT22;373;49.342;8.146;2022-12-10T00:36:27;3.70;99.90
780;DHT22;373;49.342;8.146;2022-12-10T00:38:54;3.70;99.90
780;DHT22;373;49.342;8.146;2022-12-10T00:41:22;3.60;99.90
780;DHT22;373;49.342;8.146;2022-12-10T00:43:50;3.70;99.90
780;DHT22;373;49.342;8.146;2022-12-10T00:46:18;3.80;99.90
780;DHT22;373;49.342;8.146;2022-12-10T00:48:46;3.90;99.90
780;DHT22;373;49.342;8.146;2022-12-10T00:51:15;3.90;99.90
780;DHT22;373;49.342;8.146;2022-12-10T00:53:44;4.00;99.90
780;DHT22;373;49.342;8.146;2022-12-10T00:56:13;4.10;99.90
780;DHT22;373;49.342;8.146;2022-12-10T00:58:40;4.00;99.90
780;DHT22;373;49.342;8.146;2022-12-10T01:01:15;3.90;99.90
780;DHT22;373;49.342;8.146;2022-12-10T01:03:44;3.80;99.90
780;DHT22;373;49.342;8.146;2022-12-10T01:06:13;3.80;99.90
780;DHT22;373;49.342;8.146;2022-12-10T01:08:41;3.80;99.90
780;DHT22;373;49.342;8.146;2022-12-10T01:11:09;3.80;99.90
780;DHT22;373;49.342;8.146;2022-12-10T01:13:37;3.90;99.90
780;DHT22;373;49.342;8.146;2022-12-10T01:16:06;3.70;99.90
780;DHT22;373;49.342;8.146;2022-12-10T01:18:35;3.60;99.90
780;DHT22;373;49.342;8.146;2022-12-10T01:21:03;3.40;99.90
780;DHT22;373;49.342;8.146;2022-12-10T01:23:32;3.50;99.90
780;DHT22;373;49.342;8.146;2022-12-10T01:26:00;3.50;99.90
780;DHT22;373;49.342;8.146;2022-12-10T01:28:29;3.50;99.90
780;DHT22;373;49.342;8.146;2022-12-10T01:31:00;3.60;99.90
780;DHT22;373;49.342;8.146;2022-12-10T01:33:28;3.80;99.90
780;DHT22;373;49.342;8.146;2022-12-10T01:35:57;3.70;99.90
780;DHT22;373;49.342;8.146;2022-12-10T01:38:27;3.70;99.90
780;DHT22;373;49.342;8.146;2022-12-10T01:40:56;3.70;99.90
780;DHT22;373;49.342;8.146;2022-12-10T01:43:23;3.70;99.90
780;DHT22;373;49.342;8.146;2022-12-10T01:45:51;3.60;99.90
780;DHT22;373;49.342;8.146;2022-12-10T01:48:18;3.50;99.90
780;DHT22;373;49.342;8.146;2022-12-10T01:50:45;3.40;99.90
780;DHT22;373;49.342;8.146;2022-12-10T01:53:14;3.40;99.90
780;DHT22;373;49.342;8.146;2022-12-10T01:55:45;3.40;99.90
780;DHT22;373;49.342;8.146;2022-12-10T01:58:14;3.30;99.90
780;DHT22;373;49.342;8.146;2022-12-10T02:00:55;3.30;99.90
780;DHT22;373;49.342;8.146;2022-12-10T02:03:31;3.20;99.90
780;DHT22;373;49.342;8.146;2022-12-10T02:06:08;3.00;99.90
780;DHT22;373;49.342;8.146;2022-12-10T02:08:44;3.00;99.90
780;DHT22;373;49.342;8.146;2022-12-10T02:11:16;3.10;99.90
780;DHT22;373;49.342;8.146;2022-12-10T02:13:48;3.00;99.90
780;DHT22;373;49.342;8.146;2022-12-10T02:16:21;3.10;99.90
780;DHT22;373;49.342;8.146;2022-12-10T02:18:58;3.00;99.90
780;DHT22;373;49.342;8.146;2022-12-10T02:21:32;3.10;99.90
780;DHT22;373;49.342;8.146;2022-12-10T02:24:03;3.10;99.90
780;DHT22;373;49.342;8.146;2022-12-10T02:26:41;3.30;99.90
780;DHT22;373;49.342;8.146;2022-12-10T02:29:13;3.30;99.90
780;DHT22;373;49.342;8.146;2022-12-10T02:31:44;3.30;99.90
780;DHT22;373;49.342;8.146;2022-12-10T02:34:13;3.30;99.90
780;DHT22;373;49.342;8.146;2022-12-10T02:36:42;3.10;99.90
780;DHT22;373;49.342;8.146;2022-12-10T02:39:17;3.00;99.90
780;DHT22;373;49.342;8.146;2022-12-10T02:41:52;2.90;99.90
780;DHT22;373;49.342;8.146;2022-12-10T02:44:23;3.00;99.90
780;DHT22;373;49.342;8.146;2022-12-10T02:46:55;3.10;99.90
780;DHT22;373;49.342;8.146;2022-12-10T02:49:28;3.30;99.90
780;DHT22;373;49.342;8.146;2022-12-10T02:52:05;3.00;99.90
780;DHT22;373;49.342;8.146;2022-12-10T02:54:38;2.90;99.90
780;DHT22;373;49.342;8.146;2022-12-10T02:57:21;2.80;99.90
780;DHT22;373;49.342;8.146;2022-12-10T03:00:05;2.80;99.90
780;DHT22;373;49.342;8.146;2022-12-10T03:02:50;2.70;99.90
780;DHT22;373;49.342;8.146;2022-12-10T03:05:23;2.70;99.90
780;DHT22;373;49.342;8.146;2022-12-10T03:07:56;2.70;99.90
780;DHT22;373;49.342;8.146;2022-12-10T03:10:28;2.60;99.90
780;DHT22;373;49.342;8.146;2022-12-10T03:12:59;2.50;99.90
780;DHT22;373;49.342;8.146;2022-12-10T03:15:33;2.40;99.90
780;DHT22;373;49.342;8.146;2022-12-10T03:18:02;2.50;99.90
780;DHT22;373;49.342;8.146;2022-12-10T03:20:31;2.50;99.90
780;DHT22;373;49.342;8.146;2022-12-10T03:23:00;2.60;99.90
780;DHT22;373;49.342;8.146;2022-12-10T03:25:30;2.60;99.90
780;DHT22;373;49.342;8.146;2022-12-10T03:27:59;2.60;99.90
780;DHT22;373;49.342;8.146;2022-12-10T03:30:29;2.60;99.90
780;DHT22;373;49.342;8.146;2022-12-10T03:32:58;2.60;99.90
780;DHT22;373;49.342;8.146;2022-12-10T03:35:26;2.70;99.90
780;DHT22;373;49.342;8.146;2022-12-10T03:37:53;2.80;99.90
780;DHT22;373;49.342;8.146;2022-12-10T03:40:23;2.70;99.90
780;DHT22;373;49.342;8.146;2022-12-10T03:42:51;2.70;99.90
780;DHT22;373;49.342;8.146;2022-12-10T03:45:19;2.60;99.90
780;DHT22;373;49.342;8.146;2022-12-10T03:47:47;2.50;99.90
780;DHT22;373;49.342;8.146;2022-12-10T03:50:15;2.60;99.90
780;DHT22;373;49.342;8.146;2022-12-10T03:52:42;2.60;99.90
780;DHT22;373;49.342;8.146;2022-12-10T03:55:09;2.70;99.90
780;DHT22;373;49.342;8.146;2022-12-10T03:57:36;2.70;99.90
780;DHT22;373;49.342;8.146;2022-12-10T04:00:05;2.80;99.90
780;DHT22;373;49.342;8.146;2022-12-10T04:02:38;2.90;99.90
780;DHT22;373;49.342;8.146;2022-12-10T04:05:07;2.80;99.90
780;DHT22;373;49.342;8.146;2022-12-10T04:07:34;2.80;99.90
780;DHT22;373;49.342;8.146;2022-12-10T04:10:02;2.70;99.90
780;DHT22;373;49.342;8.146;2022-12-10T04:12:29;2.70;99.90
780;DHT22;373;49.342;8.146;2022-12-10T04:14:56;2.70;99.90
780;DHT22;373;49.342;8.146;2022-12-10T04:17:40;2.60;99.90
780;DHT22;373;49.342;8.146;2022-12-10T04:20:09;2.60;99.90
780;DHT22;373;49.342;8.146;2022-12-10T04:22:57;2.60;99.90
780;DHT22;373;49.342;8.146;2022-12-10T04:25:41;2.50;99.90
780;DHT22;373;49.342;8.146;2022-12-10T04:28:26;2.40;99.90
780;DHT22;373;49.342;8.146;2022-12-10T04:30:53;2.40;99.90
780;DHT22;373;49.342;8.146;2022-12-10T04:33:20;2.50;99.90
780;DHT22;373;49.342;8.146;2022-12-10T04:35:49;2.40;99.90
780;DHT22;373;49.342;8.146;2022-12-10T04:38:16;2.50;99.90
780;DHT22;373;49.342;8.146;2022-12-10T04:40:43;2.40;99.90
780;DHT22;373;49.342;8.146;2022-12-10T04:43:10;2.40;99.90
780;DHT22;373;49.342;8.146;2022-12-10T04:45:37;2.20;99.90
780;DHT22;373;49.342;8.146;2022-12-10T04:48:05;2.10;99.90
780;DHT22;373;49.342;8.146;2022-12-10T04:50:33;2.20;99.90
780;DHT22;373;49.342;8.146;2022-12-10T04:53:01;2.10;99.90
780;DHT22;373;49.342;8.146;2022-12-10T04:55:28;2.10;99.90
780;DHT22;373;49.342;8.146;2022-12-10T04:57:55;2.10;99.90
780;DHT22;373;49.342;8.146;2022-12-10T05:00:23;2.20;99.90
780;DHT22;373;49.342;8.146;2022-12-10T05:02:51;2.10;99.90
780;DHT22;373;49.342;8.146;2022-12-10T05:05:18;2.20;99.90
780;DHT22;373;49.342;8.146;2022-12-10T05:07:45;2.20;99.90
780;DHT22;373;49.342;8.146;2022-12-10T05:10:13;2.20;99.90
780;DHT22;373;49.342;8.146;2022-12-10T05:12:40;2.20;99.90
780;DHT22;373;49.342;8.146;2022-12-10T05:15:08;2.20;99.90
780;DHT22;373;49.342;8.146;2022-12-10T05:17:35;2.30;99.90
780;DHT22;373;49.342;8.146;2022-12-10T05:20:03;2.30;99.90
780;DHT22;373;49.342;8.146;2022-12-10T05:22:30;2.30;99.90
780;DHT22;373;49.342;8.146;2022-12-10T05:25:16;2.20;99.90
780;DHT22;373;49.342;8.146;2022-12-10T05:27:43;2.20;99.90
780;DHT22;373;49.342;8.146;2022-12-10T05:30:11;2.30;99.90
780;DHT22;373;49.342;8.146;2022-12-10T05:32:38;2.20;99.90
780;DHT22;373;49.342;8.146;2022-12-10T05:35:06;2.10;99.90
780;DHT22;373;49.342;8.146;2022-12-10T05:37:33;2.10;99.90
780;DHT22;373;49.342;8.146;2022-12-10T05:40:00;2.20;99.90
780;DHT22;373;49.342;8.146;2022-12-10T05:42:29;2.20;99.90
780;DHT22;373;49.342;8.146;2022-12-10T05:44:56;2.10;99.90
780;DHT22;373;49.342;8.146;2022-12-10T05:47:24;2.10;99.90
780;DHT22;373;49.342;8.146;2022-12-10T05:49:51;2.20;99.90
780;DHT22;373;49.342;8.146;2022-12-10T05:52:18;2.20;99.90
780;DHT22;373;49.342;8.146;2022-12-10T05:54:45;2.20;99.90
780;DHT22;373;49.342;8.146;2022-12-10T05:57:12;2.20;99.90
780;DHT22;373;49.342;8.146;2022-12-10T05:59:42;2.30;99.90
780;DHT22;373;49.342;8.146;2022-12-10T06:02:09;2.20;99.90
780;DHT22;373;49.342;8.146;2022-12-10T06:04:36;2.10;99.90
780;DHT22;373;49.342;8.146;2022-12-10T06:07:03;2.10;99.90
780;DHT22;373;49.342;8.146;2022-12-10T06:09:30;2.10;99.90
780;DHT22;373;49.342;8.146;2022-12-10T06:11:57;2.00;99.90
780;DHT22;373;49.342;8.146;2022-12-10T06:14:24;2.00;99.90
780;DHT22;373;49.342;8.146;2022-12-10T06:16:52;2.10;99.90
780;DHT22;373;49.342;8.146;2022-12-10T06:19:21;2.00;99.90
780;DHT22;373;49.342;8.146;2022-12-10T06:21:48;2.10;99.90
780;DHT22;373;49.342;8.146;2022-12-10T06:24:15;2.10;99.90
780;DHT22;373;49.342;8.146;2022-12-10T06:26:42;2.00;99.90
780;DHT22;373;49.342;8.146;2022-12-10T06:29:09;2.00;99.90
780;DHT22;373;49.342;8.146;2022-12-10T06:31:36;2.00;99.90
780;DHT22;373;49.342;8.146;2022-12-10T06:34:04;2.20;99.90
780;DHT22;373;49.342;8.146;2022-12-10T06:36:31;2.20;99.90
780;DHT22;373;49.342;8.146;2022-12-10T06:38:58;2.30;99.90
780;DHT22;373;49.342;8.146;2022-12-10T06:41:26;2.20;99.90
780;DHT22;373;49.342;8.146;2022-12-10T06:43:53;2.30;99.90
780;DHT22;373;49.342;8.146;2022-12-10T06:46:25;2.20;99.90
780;DHT22;373;49.342;8.146;2022-12-10T06:48:53;2.20;99.90
780;DHT22;373;49.342;8.146;2022-12-10T06:51:22;2.20;99.90
780;DHT22;373;49.342;8.146;2022-12-10T06:53:49;2.10;99.90
780;DHT22;373;49.342;8.146;2022-12-10T06:56:18;2.10;99.90
780;DHT22;373;49.342;8.146;2022-12-10T06:58:46;2.10;99.90
780;DHT22;373;49.342;8.146;2022-12-10T07:01:15;2.20;99.90
780;DHT22;373;49.342;8.146;2022-12-10T07:03:43;2.20;99.90
780;DHT22;373;49.342;8.146;2022-12-10T07:06:11;2.30;99.90
780;DHT22;373;49.342;8.146;2022-12-10T07:08:40;2.40;99.90
780;DHT22;373;49.342;8.146;2022-12-10T07:11:08;2.50;99.90
780;DHT22;373;49.342;8.146;2022-12-10T07:13:36;2.30;99.90
780;DHT22;373;49.342;8.146;2022-12-10T07:16:11;2.30;99.90
780;DHT22;373;49.342;8.146;2022-12-10T07:18:38;2.40;99.90
780;DHT22;373;49.342;8.146;2022-12-10T07:21:13;2.10;99.90
780;DHT22;373;49.342;8.146;2022-12-10T07:23:45;2.30;99.90
780;DHT22;373;49.342;8.146;2022-12-10T07:26:16;2.20;99.90
780;DHT22;373;49.342;8.146;2022-12-10T07:28:43;2.20;99.90
780;DHT22;373;49.342;8.146;2022-12-10T07:31:10;2.30;99.90
780;DHT22;373;49.342;8.146;2022-12-10T07:33:37;2.30;99.90
780;DHT22;373;49.342;8.146;2022-12-10T07:36:05;2.40;99.90
780;DHT22;373;49.342;8.146;2022-12-10T07:38:33;2.50;99.90
780;DHT22;373;49.342;8.146;2022-12-10T07:41:04;2.60;99.90
780;DHT22;373;49.342;8.146;2022-12-10T07:43:33;2.60;99.90
780;DHT22;373;49.342;8.146;2022-12-10T07:46:03;2.80;99.90
780;DHT22;373;49.342;8.146;2022-12-10T07:48:31;2.70;99.90
780;DHT22;373;49.342;8.146;2022-12-10T07:50:59;2.60;99.90
780;DHT22;373;49.342;8.146;2022-12-10T07:53:26;2.60;99.90
780;DHT22;373;49.342;8.146;2022-12-10T07:55:53;2.60;99.90
780;DHT22;373;49.342;8.146;2022-12-10T07:58:22;2.70;99.90
780;DHT22;373;49.342;8.146;2022-12-10T08:00:49;2.70;99.90
780;DHT22;373;49.342;8.146;2022-12-10T08:03:17;2.70;99.90
780;DHT22;373;49.342;8.146;2022-12-10T08:05:44;2.80;99.90
780;DHT22;373;49.342;8.146;2022-12-10T08:08:11;2.80;99.90
780;DHT22;373;49.342;8.146;2022-12-10T08:10:38;2.90;99.90
780;DHT22;373;49.342;8.146;2022-12-10T08:13:06;3.00;99.90
780;DHT22;373;49.342;8.146;2022-12-10T08:15:34;2.90;99.90
780;DHT22;373;49.342;8.146;2022-12-10T08:18:01;3.00;99.90
780;DHT22;373;49.342;8.146;2022-12-10T08:20:28;2.90;99.90
780;DHT22;373;49.342;8.146;2022-12-10T08:22:56;2.90;99.90
780;DHT22;373;49.342;8.146;2022-12-10T08:25:24;2.80;99.90
780;DHT22;373;49.342;8.146;2022-12-10T08:27:51;2.90;99.90
780;DHT22;373;49.342;8.146;2022-12-10T08:30:18;2.90;99.90
780;DHT22;373;49.342;8.146;2022-12-10T08:32:46;3.00;99.90
780;DHT22;373;49.342;8.146;2022-12-10T08:35:13;3.10;99.90
780;DHT22;373;49.342;8.146;2022-12-10T08:37:41;3.10;99.90
780;DHT22;373;49.342;8.146;2022-12-10T08:40:09;3.00;99.90
780;DHT22;373;49.342;8.146;2022-12-10T08:42:36;3.10;99.90
780;DHT22;373;49.342;8.146;2022-12-10T08:45:04;3.00;99.90
780;DHT22;373;49.342;8.146;2022-12-10T08:47:31;4.10;99.90
780;DHT22;373;49.342;8.146;2022-12-10T08:50:00;4.40;99.90
780;DHT22;373;49.342;8.146;2022-12-10T08:52:27;4.70;99.90
780;DHT22;373;49.342;8.146;2022-12-10T08:54:55;4.60;99.90
780;DHT22;373;49.342;8.146;2022-12-10T08:57:22;4.70;99.90
780;DHT22;373;49.342;8.146;2022-12-10T08:59:49;5.00;99.90
780;DHT22;373;49.342;8.146;2022-12-10T09:02:16;5.00;99.90
780;DHT22;373;49.342;8.146;2022-12-10T09:04:43;5.80;99.90
780;DHT22;373;49.342;8.146;2022-12-10T09:07:13;5.90;98.30
780;DHT22;373;49.342;8.146;2022-12-10T09:09:40;5.70;95.70
780;DHT22;373;49.342;8.146;2022-12-10T09:12:07;6.00;99.90
780;DHT22;373;49.342;8.146;2022-12-10T09:14:34;6.50;95.40
780;DHT22;373;49.342;8.146;2022-12-10T09:17:04;6.30;93.30
780;DHT22;373;49.342;8.146;2022-12-10T09:19:31;6.00;94.80
780;DHT22;373;49.342;8.146;2022-12-10T09:21:58;6.00;94.00
780;DHT22;373;49.342;8.146;2022-12-10T09:24:27;6.10;94.50
780;DHT22;373;49.342;8.146;2022-12-10T09:26:54;6.60;94.80
780;DHT22;373;49.342;8.146;2022-12-10T09:29:21;7.00;92.20
780;DHT22;373;49.342;8.146;2022-12-10T09:31:50;6.70;92.10
780;DHT22;373;49.342;8.146;2022-12-10T09:34:17;7.40;91.50
780;DHT22;373;49.342;8.146;2022-12-10T09:36:44;7.60;91.20
780;DHT22;373;49.342;8.146;2022-12-10T09:39:11;8.20;93.20
780;DHT22;373;49.342;8.146;2022-12-10T09:41:53;7.50;89.00
780;DHT22;373;49.342;8.146;2022-12-10T09:44:29;7.30;90.50
780;DHT22;373;49.342;8.146;2022-12-10T09:46:59;7.90;90.90
780;DHT22;373;49.342;8.146;2022-12-10T09:49:34;8.20;90.10
780;DHT22;373;49.342;8.146;2022-12-10T09:52:05;7.80;90.30
780;DHT22;373;49.342;8.146;2022-12-10T09:54:36;7.30;89.90
780;DHT22;373;49.342;8.146;2022-12-10T09:57:07;7.10;90.80
780;DHT22;373;49.342;8.146;2022-12-10T09:59:40;8.30;90.20
780;DHT22;373;49.342;8.146;2022-12-10T10:02:20;7.40;90.10
780;DHT22;373;49.342;8.146;2022-12-10T10:04:49;7.70;91.80
780;DHT22;373;49.342;8.146;2022-12-10T10:07:20;8.20;90.10
780;DHT22;373;49.342;8.146;2022-12-10T10:09:47;8.40;87.20
780;DHT22;373;49.342;8.146;2022-12-10T10:12:16;8.00;87.30
780;DHT22;373;49.342;8.146;2022-12-10T10:14:44;9.20;91.50
780;DHT22;373;49.342;8.146;2022-12-10T10:17:16;9.60;85.80
780;DHT22;373;49.342;8.146;2022-12-10T10:19:44;9.90;82.60
780;DHT22;373;49.342;8.146;2022-12-10T10:22:11;9.90;80.20
780;DHT22;373;49.342;8.146;2022-12-10T10:24:41;9.40;80.70
780;DHT22;373;49.342;8.146;2022-12-10T10:27:13;7.90;82.30
780;DHT22;373;49.342;8.146;2022-12-10T10:29:43;7.20;85.40
780;DHT22;373;49.342;8.146;2022-12-10T10:32:16;6.40;88.00
780;DHT22;373;49.342;8.146;2022-12-10T10:34:52;5.70;90.50
780;DHT22;373;49.342;8.146;2022-12-10T10:37:21;5.30;91.60
780;DHT22;373;49.342;8.146;2022-12-10T10:39:50;5.30;92.40
780;DHT22;373;49.342;8.146;2022-12-10T10:42:27;5.40;92.20
780;DHT22;373;49.342;8.146;2022-12-10T10:45:02;5.50;91.70
780;DHT22;373;49.342;8.146;2022-12-10T10:47:32;5.20;92.00
780;DHT22;373;49.342;8.146;2022-12-10T10:50:00;4.80;92.50
780;DHT22;373;49.342;8.146;2022-12-10T10:52:30;4.70;93.10
780;DHT22;373;49.342;8.146;2022-12-10T10:54:57;4.80;93.10
780;DHT22;373;49.342;8.146;2022-12-10T10:57:28;5.10;92.60
780;DHT22;373;49.342;8.146;2022-12-10T11:00:05;5.90;91.90
780;DHT22;373;49.342;8.146;2022-12-10T11:02:35;7.10;90.00
780;DHT22;373;49.342;8.146;2022-12-10T11:05:06;7.60;87.70
780;DHT22;373;49.342;8.146;2022-12-10T11:07:35;7.30;85.90
780;DHT22;373;49.342;8.146;2022-12-10T11:10:04;7.10;87.70
780;DHT22;373;49.342;8.146;2022-12-10T11:12:44;6.90;87.40
780;DHT22;373;49.342;8.146;2022-12-10T11:15:32;6.70;87.80
780;DHT22;373;49.342;8.146;2022-12-10T11:18:02;6.70;87.30
780;DHT22;373;49.342;8.146;2022-12-10T11:20:34;6.80;87.90
780;DHT22;373;49.342;8.146;2022-12-10T11:23:09;6.60;87.60
780;DHT22;373;49.342;8.146;2022-12-10T11:25:43;6.20;87.80
780;DHT22;373;49.342;8.146;2022-12-10T11:28:24;6.50;88.70
780;DHT22;373;49.342;8.146;2022-12-10T11:31:07;6.70;87.60
780;DHT22;373;49.342;8.146;2022-12-10T11:33:44;6.10;88.00
780;DHT22;373;49.342;8.146;2022-12-10T11:36:26;5.80;90.00
780;DHT22;373;49.342;8.146;2022-12-10T11:39:07;5.20;90.50
780;DHT22;373;49.342;8.146;2022-12-10T11:41:40;4.90;91.20
780;DHT22;373;49.342;8.146;2022-12-10T11:44:23;4.70;91.90
780;DHT22;373;49.342;8.146;2022-12-10T11:47:08;4.50;92.40
780;DHT22;373;49.342;8.146;2022-12-10T11:49:41;4.40;93.10
780;DHT22;373;49.342;8.146;2022-12-10T11:52:19;4.40;93.00
780;DHT22;373;49.342;8.146;2022-12-10T11:54:59;4.50;93.10
780;DHT22;373;49.342;8.146;2022-12-10T11:57:38;4.70;93.20
780;DHT22;373;49.342;8.146;2022-12-10T12:00:19;5.40;93.00
780;DHT22;373;49.342;8.146;2022-12-10T12:03:20;6.30;91.40
780;DHT22;373;49.342;8.146;2022-12-10T12:06:08;7.20;89.00
780;DHT22;373;49.342;8.146;2022-12-10T12:08:45;7.30;86.90
780;DHT22;373;49.342;8.146;2022-12-10T12:11:33;7.70;84.70
780;DHT22;373;49.342;8.146;2022-12-10T12:14:08;8.40;83.00
780;DHT22;373;49.342;8.146;2022-12-10T12:16:42;9.10;81.90
780;DHT22;373;49.342;8.146;2022-12-10T12:19:17;9.50;77.30
780;DHT22;373;49.342;8.146;2022-12-10T12:21:50;8.90;76.00
780;DHT22;373;49.342;8.146;2022-12-10T12:24:43;8.00;79.40
780;DHT22;373;49.342;8.146;2022-12-10T12:27:19;7.40;79.80
780;DHT22;373;49.342;8.146;2022-12-10T12:29:58;7.90;81.80
780;DHT22;373;49.342;8.146;2022-12-10T12:32:31;7.80;81.70
780;DHT22;373;49.342;8.146;2022-12-10T12:35:02;7.10;80.10
780;DHT22;373;49.342;8.146;2022-12-10T12:37:37;6.50;83.40
780;DHT22;373;49.342;8.146;2022-12-10T12:40:12;6.50;83.90
780;DHT22;373;49.342;8.146;2022-12-10T12:42:45;6.30;85.00
780;DHT22;373;49.342;8.146;2022-12-10T12:45:14;6.20;84.70
780;DHT22;373;49.342;8.146;2022-12-10T12:47:47;5.80;85.10
780;DHT22;373;49.342;8.146;2022-12-10T12:50:24;5.60;86.20
780;DHT22;373;49.342;8.146;2022-12-10T12:52:54;5.50;87.00
780;DHT22;373;49.342;8.146;2022-12-10T12:55:29;5.30;88.30
780;DHT22;373;49.342;8.146;2022-12-10T12:58:11;5.10;88.70
780;DHT22;373;49.342;8.146;2022-12-10T13:00:42;4.80;90.20
780;DHT22;373;49.342;8.146;2022-12-10T13:03:26;4.70;90.30
780;DHT22;373;49.342;8.146;2022-12-10T13:06:12;4.70;90.80
780;DHT22;373;49.342;8.146;2022-12-10T13:08:44;4.70;90.70
780;DHT22;373;49.342;8.146;2022-12-10T13:11:27;4.70;91.20
780;DHT22;373;49.342;8.146;2022-12-10T13:14:15;4.60;90.70
780;DHT22;373;49.342;8.146;2022-12-10T13:16:49;4.40;91.20
780;DHT22;373;49.342;8.146;2022-12-10T13:19:29;4.20;91.40
780;DHT22;373;49.342;8.146;2022-12-10T13:22:01;4.10;92.10
780;DHT22;373;49.342;8.146;2022-12-10T13:27:39;4.00;92.40
780;DHT22;373;49.342;8.146;2022-12-10T13:30:32;3.90;92.30
780;DHT22;373;49.342;8.146;2022-12-10T13:33:09;3.90;92.40
780;DHT22;373;49.342;8.146;2022-12-10T13:35:44;3.80;93.00
780;DHT22;373;49.342;8.146;2022-12-10T13:38:22;3.80;93.00
780;DHT22;373;49.342;8.146;2022-12-10T13:41:02;3.80;93.00
780;DHT22;373;49.342;8.146;2022-12-10T13:43:55;3.90;93.00
780;DHT22;373;49.342;8.146;2022-12-10T13:46:55;4.20;92.80
780;DHT22;373;49.342;8.146;2022-12-10T13:49:24;4.00;92.50
780;DHT22;373;49.342;8.146;2022-12-10T13:51:57;4.10;92.70
780;DHT22;373;49.342;8.146;2022-12-10T13:57:43;4.20;92.60
780;DHT22;373;49.342;8.146;2022-12-10T14:00:17;4.20;92.40
780;DHT22;373;49.342;8.146;2022-12-10T14:03:09;4.20;92.20
780;DHT22;373;49.342;8.146;2022-12-10T14:05:58;4.20;92.50
780;DHT22;373;49.342;8.146;2022-12-10T14:08:32;4.40;92.20
780;DHT22;373;49.342;8.146;2022-12-10T14:11:04;4.30;92.00
780;DHT22;373;49.342;8.146;2022-12-10T14:13:36;4.40;92.20
780;DHT22;373;49.342;8.146;2022-12-10T14:16:06;4.40;91.80
780;DHT22;373;49.342;8.146;2022-12-10T14:18:36;4.40;92.00
780;DHT22;373;49.342;8.146;2022-12-10T14:21:06;4.30;92.20
780;DHT22;373;49.342;8.146;2022-12-10T14:23:34;4.20;92.40
780;DHT22;373;49.342;8.146;2022-12-10T14:26:06;4.10;92.30
780;DHT22;373;49.342;8.146;2022-12-10T14:28:39;4.30;92.10
780;DHT22;373;49.342;8.146;2022-12-10T14:31:12;4.20;92.10
780;DHT22;373;49.342;8.146;2022-12-10T14:33:41;4.20;92.40
780;DHT22;373;49.342;8.146;2022-12-10T14:36:15;4.10;92.40
780;DHT22;373;49.342;8.146;2022-12-10T14:38:45;4.10;92.90
780;DHT22;373;49.342;8.146;2022-12-10T14:41:19;4.10;93.60
780;DHT22;373;49.342;8.146;2022-12-10T14:43:47;4.20;93.60
780;DHT22;373;49.342;8.146;2022-12-10T14:46:17;4.70;93.10
780;DHT22;373;49.342;8.146;2022-12-10T14:48:49;4.90;92.50
780;DHT22;373;49.342;8.146;2022-12-10T14:51:20;4.80;92.30
780;DHT22;373;49.342;8.146;2022-12-10T14:53:48;4.90;91.90
780;DHT22;373;49.342;8.146;2022-12-10T14:56:21;5.10;91.80
780;DHT22;373;49.342;8.146;2022-12-10T14:58:55;5.30;91.30
780;DHT22;373;49.342;8.146;2022-12-10T15:01:28;5.60;90.80
780;DHT22;373;49.342;8.146;2022-12-10T15:03:58;5.70;90.10
780;DHT22;373;49.342;8.146;2022-12-10T15:06:27;5.80;89.20
780;DHT22;373;49.342;8.146;2022-12-10T15:08:56;5.80;89.30
780;DHT22;373;49.342;8.146;2022-12-10T15:11:27;5.40;90.30
780;DHT22;373;49.342;8.146;2022-12-10T15:13:57;5.50;90.20
780;DHT22;373;49.342;8.146;2022-12-10T15:16:30;5.50;90.50
780;DHT22;373;49.342;8.146;2022-12-10T15:19:15;5.70;90.40
780;DHT22;373;49.342;8.146;2022-12-10T15:21:44;5.30;90.60
780;DHT22;373;49.342;8.146;2022-12-10T15:24:18;4.70;91.80
780;DHT22;373;49.342;8.146;2022-12-10T15:26:50;4.50;93.60
780;DHT22;373;49.342;8.146;2022-12-10T15:29:32;4.20;95.20
780;DHT22;373;49.342;8.146;2022-12-10T15:32:05;3.80;96.30
780;DHT22;373;49.342;8.146;2022-12-10T15:34:39;3.80;97.20
780;DHT22;373;49.342;8.146;2022-12-10T15:37:19;3.50;97.90
780;DHT22;373;49.342;8.146;2022-12-10T15:39:51;3.30;98.40
780;DHT22;373;49.342;8.146;2022-12-10T15:42:48;2.90;99.80
780;DHT22;373;49.342;8.146;2022-12-10T15:45:23;3.10;99.90
780;DHT22;373;49.342;8.146;2022-12-10T15:47:52;3.40;99.40
780;DHT22;373;49.342;8.146;2022-12-10T15:50:21;3.60;98.30
780;DHT22;373;49.342;8.146;2022-12-10T15:52:48;3.50;98.50
780;DHT22;373;49.342;8.146;2022-12-10T15:55:16;3.60;98.30
780;DHT22;373;49.342;8.146;2022-12-10T15:57:44;3.80;97.60
780;DHT22;373;49.342;8.146;2022-12-10T16:00:19;4.20;96.80
780;DHT22;373;49.342;8.146;2022-12-10T16:02:48;4.30;95.30
780;DHT22;373;49.342;8.146;2022-12-10T16:05:18;3.90;96.50
780;DHT22;373;49.342;8.146;2022-12-10T16:07:46;4.10;96.70
780;DHT22;373;49.342;8.146;2022-12-10T16:10:15;3.90;95.90
780;DHT22;373;49.342;8.146;2022-12-10T16:12:45;3.30;98.30
780;DHT22;373;49.342;8.146;2022-12-10T16:15:18;3.10;98.90
780;DHT22;373;49.342;8.146;2022-12-10T16:17:46;3.20;98.60
780;DHT22;373;49.342;8.146;2022-12-10T16:20:18;3.20;99.00
780;DHT22;373;49.342;8.146;2022-12-10T16:22:46;3.20;98.80
780;DHT22;373;49.342;8.146;2022-12-10T16:25:13;3.20;98.70
780;DHT22;373;49.342;8.146;2022-12-10T16:27:41;3.40;98.50
780;DHT22;373;49.342;8.146;2022-12-10T16:30:19;3.50;98.40
780;DHT22;373;49.342;8.146;2022-12-10T16:32:47;3.70;97.40
780;DHT22;373;49.342;8.146;2022-12-10T16:35:15;3.70;96.90
780;DHT22;373;49.342;8.146;2022-12-10T16:37:44;3.60;96.60
780;DHT22;373;49.342;8.146;2022-12-10T16:40:12;3.70;96.60
780;DHT22;373;49.342;8.146;2022-12-10T16:42:40;3.70;95.90
780;DHT22;373;49.342;8.146;2022-12-10T16:45:17;3.50;96.20
780;DHT22;373;49.342;8.146;2022-12-10T16:47:46;3.40;95.90
780;DHT22;373;49.342;8.146;2022-12-10T16:50:14;3.20;96.30
780;DHT22;373;49.342;8.146;2022-12-10T16:52:42;3.50;96.60
780;DHT22;373;49.342;8.146;2022-12-10T16:55:12;3.50;95.80
780;DHT22;373;49.342;8.146;2022-12-10T16:57:40;3.30;96.30
780;DHT22;373;49.342;8.146;2022-12-10T17:00:08;2.90;97.60
780;DHT22;373;49.342;8.146;2022-12-10T17:02:36;2.70;98.20
780;DHT22;373;49.342;8.146;2022-12-10T17:05:09;2.30;98.90
780;DHT22;373;49.342;8.146;2022-12-10T17:07:38;2.20;99.90
780;DHT22;373;49.342;8.146;2022-12-10T17:10:06;2.20;99.90
780;DHT22;373;49.342;8.146;2022-12-10T17:12:33;2.10;99.90
780;DHT22;373;49.342;8.146;2022-12-10T17:14:59;1.90;99.90
780;DHT22;373;49.342;8.146;2022-12-10T17:17:26;1.70;99.90
780;DHT22;373;49.342;8.146;2022-12-10T17:19:55;1.60;99.90
780;DHT22;373;49.342;8.146;2022-12-10T17:22:22;1.50;99.90
780;DHT22;373;49.342;8.146;2022-12-10T17:24:49;1.40;99.90